createdAt,value
2022-12-31T00:01:47.028Z,99605.69
2022-12-31T00:04:13.677Z,99609.84
2022-12-31T00:06:40.231Z,99606.66
2022-12-31T00:09:10.445Z,99606.47
2022-12-31T00:11:37.372Z,99604.56
2022-12-31T00:14:04.385Z,99603.44
2022-12-31T00:16:33.079Z,99615.06
2022-12-31T00:19:00.372Z,99610.81
2022-12-31T00:21:28.004Z,99615.34
2022-12-31T00:23:57.128Z,99606.28
2022-12-31T00:26:25.215Z,99628.88
2022-12-31T00:28:52.817Z,99624.81
2022-12-31T00:31:23.631Z,99639.06
2022-12-31T00:33:52.644Z,99636.72
2022-12-31T00:36:23.732Z,99634.66
2022-12-31T00:38:51.233Z,99641.44
2022-12-31T00:41:20.625Z,99639.38
2022-12-31T00:43:50.062Z,99639.94
2022-12-31T00:46:17.316Z,99639.22
2022-12-31T00:48:47.344Z,99645.06
2022-12-31T00:51:15.468Z,99655.44
2022-12-31T00:53:42.131Z,99658.59
2022-12-31T00:56:11.315Z,99647.69
2022-12-31T00:58:38.252Z,99653.25
2022-12-31T01:01:23.574Z,99658.19
2022-12-31T01:03:51.172Z,99656.56
2022-12-31T01:06:17.802Z,99647.31
2022-12-31T01:08:44.435Z,99650.00
2022-12-31T01:11:22.974Z,99655.53
2022-12-31T01:14:00.002Z,99658.97
2022-12-31T01:16:28.535Z,99667.47
2022-12-31T01:18:55.627Z,99667.06
2022-12-31T01:21:22.449Z,99670.13
2022-12-31T01:23:49.005Z,99666.34
2022-12-31T01:26:16.726Z,99658.50
2022-12-31T01:28:43.298Z,99663.47
2022-12-31T01:31:12.395Z,99663.28
2022-12-31T01:33:39.365Z,99667.28
2022-12-31T01:36:07.424Z,99668.69
2022-12-31T01:38:34.469Z,99669.66
2022-12-31T01:41:01.517Z,99673.72
2022-12-31T01:43:46.857Z,99678.22
2022-12-31T01:46:17.397Z,99688.84
2022-12-31T01:48:45.985Z,99682.78
2022-12-31T01:51:12.873Z,99682.19
2022-12-31T01:53:41.029Z,99682.72
2022-12-31T01:56:08.691Z,99687.31
2022-12-31T01:58:40.124Z,99679.88
2022-12-31T02:01:07.807Z,99686.84
2022-12-31T02:03:34.765Z,99677.72
2022-12-31T02:06:05.280Z,99680.13
2022-12-31T02:08:35.772Z,99680.38
2022-12-31T02:11:21.509Z,99673.41
2022-12-31T02:13:55.021Z,99667.72
2022-12-31T02:16:44.928Z,99664.44
2022-12-31T02:19:11.444Z,99654.97
2022-12-31T02:21:50.142Z,99671.06
2022-12-31T02:24:22.606Z,99672.38
2022-12-31T02:27:01.923Z,99664.91
2022-12-31T02:29:28.522Z,99675.22
2022-12-31T02:32:00.309Z,99660.00
2022-12-31T02:34:26.878Z,99658.97
2022-12-31T02:36:55.030Z,99661.19
2022-12-31T02:39:21.983Z,99661.59
2022-12-31T02:41:52.864Z,99658.53
2022-12-31T02:44:23.693Z,99645.06
2022-12-31T02:47:10.649Z,99644.13
2022-12-31T02:49:56.017Z,99637.84
2022-12-31T02:52:25.372Z,99641.69
2022-12-31T02:54:54.930Z,99633.94
2022-12-31T02:57:33.850Z,99620.69
2022-12-31T03:00:29.928Z,99629.97
2022-12-31T03:02:57.661Z,99616.00
2022-12-31T03:05:25.911Z,99618.66
2022-12-31T03:07:53.842Z,99621.88
2022-12-31T03:10:20.383Z,99609.75
2022-12-31T03:12:47.507Z,99596.66
2022-12-31T03:15:21.802Z,99609.31
2022-12-31T03:17:49.675Z,99610.78
2022-12-31T03:20:35.399Z,99614.28
2022-12-31T03:23:05.858Z,99619.22
2022-12-31T03:25:41.639Z,99598.28
2022-12-31T03:28:10.415Z,99607.13
2022-12-31T03:30:38.348Z,99604.59
2022-12-31T03:33:05.483Z,99606.69
2022-12-31T03:35:35.470Z,99596.59
2022-12-31T03:38:02.207Z,99602.63
2022-12-31T03:40:32.086Z,99598.56
2022-12-31T03:42:58.681Z,99607.41
2022-12-31T03:45:25.224Z,99604.00
2022-12-31T03:47:51.875Z,99612.69
2022-12-31T03:50:18.725Z,99615.88
2022-12-31T03:52:45.790Z,99607.22
2022-12-31T03:55:13.020Z,99603.81
2022-12-31T03:57:40.323Z,99597.31
2022-12-31T04:00:08.608Z,99590.97
2022-12-31T04:02:35.331Z,99595.00
2022-12-31T04:05:01.924Z,99598.44
2022-12-31T04:07:29.535Z,99602.69
2022-12-31T04:09:56.096Z,99611.22
2022-12-31T04:12:22.726Z,99609.16
2022-12-31T04:14:49.287Z,99603.75
2022-12-31T04:17:18.940Z,99596.34
2022-12-31T04:19:45.565Z,99583.38
2022-12-31T04:22:12.149Z,99568.34
2022-12-31T04:24:39.376Z,99568.16
2022-12-31T04:27:07.963Z,99562.56
2022-12-31T04:29:35.196Z,99556.19
2022-12-31T04:32:01.961Z,99558.94
2022-12-31T04:34:30.861Z,99559.78
2022-12-31T04:36:57.482Z,99553.53
2022-12-31T04:39:24.254Z,99560.34
2022-12-31T04:41:50.938Z,99548.03
2022-12-31T04:44:17.523Z,99552.28
2022-12-31T04:46:44.205Z,99545.88
2022-12-31T04:49:10.746Z,99539.38
2022-12-31T04:51:37.612Z,99553.97
2022-12-31T04:56:44.962Z,99531.81
2022-12-31T04:59:14.207Z,99533.88
2022-12-31T05:01:43.072Z,99538.88
2022-12-31T05:04:10.363Z,99529.94
2022-12-31T05:06:36.967Z,99524.91
2022-12-31T05:09:03.493Z,99524.53
2022-12-31T05:11:30.057Z,99524.69
2022-12-31T05:13:56.640Z,99513.94
2022-12-31T05:16:23.402Z,99509.53
2022-12-31T05:18:49.964Z,99505.66
2022-12-31T05:21:19.412Z,99503.13
2022-12-31T05:23:45.939Z,99489.56
2022-12-31T05:26:16.034Z,99482.56
2022-12-31T05:28:45.111Z,99477.06
2022-12-31T05:31:11.661Z,99477.06
2022-12-31T05:33:38.231Z,99475.41
2022-12-31T05:36:04.989Z,99463.50
2022-12-31T05:38:31.578Z,99467.94
2022-12-31T05:41:04.196Z,99466.97
2022-12-31T05:43:31.394Z,99470.66
2022-12-31T05:46:00.536Z,99466.03
2022-12-31T05:48:27.102Z,99467.81
2022-12-31T05:50:56.789Z,99466.28
2022-12-31T05:53:23.353Z,99483.16
2022-12-31T05:55:49.957Z,99487.75
2022-12-31T05:58:16.675Z,99483.41
2022-12-31T06:00:43.220Z,99491.44
2022-12-31T06:03:12.390Z,99493.16
2022-12-31T06:05:41.653Z,99501.59
2022-12-31T06:08:12.189Z,99501.13
2022-12-31T06:10:39.313Z,99517.59
2022-12-31T06:13:05.902Z,99521.22
2022-12-31T06:15:32.777Z,99534.56
2022-12-31T06:17:59.379Z,99542.56
2022-12-31T06:20:26.021Z,99548.59
2022-12-31T06:22:52.545Z,99560.69
2022-12-31T06:25:19.131Z,99573.41
2022-12-31T06:27:45.750Z,99579.13
2022-12-31T06:30:12.670Z,99574.06
2022-12-31T06:32:40.731Z,99580.22
2022-12-31T06:35:07.605Z,99583.41
2022-12-31T06:37:36.728Z,99588.19
2022-12-31T06:40:03.473Z,99595.41
2022-12-31T06:42:33.568Z,99605.19
2022-12-31T06:45:00.203Z,99595.59
2022-12-31T06:47:29.176Z,99607.19
2022-12-31T06:49:55.881Z,99614.19
2022-12-31T06:52:22.438Z,99618.88
2022-12-31T06:54:49.220Z,99623.31
2022-12-31T06:57:16.011Z,99616.53
2022-12-31T06:59:43.206Z,99629.44
2022-12-31T07:02:28.798Z,99638.13
2022-12-31T07:05:08.935Z,99641.75
2022-12-31T07:07:46.207Z,99633.09
2022-12-31T07:10:12.825Z,99634.19
2022-12-31T07:12:47.181Z,99634.03
2022-12-31T07:15:29.903Z,99643.16
2022-12-31T07:17:58.188Z,99638.88
2022-12-31T07:20:24.923Z,99638.41
2022-12-31T07:22:58.726Z,99635.75
2022-12-31T07:25:26.712Z,99650.22
2022-12-31T07:28:01.657Z,99641.53
2022-12-31T07:30:31.032Z,99654.94
2022-12-31T07:33:08.963Z,99648.44
2022-12-31T07:35:54.811Z,99634.19
2022-12-31T07:38:40.139Z,99648.19
2022-12-31T07:41:15.943Z,99650.69
2022-12-31T07:43:54.969Z,99647.69
2022-12-31T07:46:27.742Z,99641.06
2022-12-31T07:48:54.477Z,99615.69
2022-12-31T07:51:21.207Z,99609.88
2022-12-31T07:53:47.820Z,99639.22
2022-12-31T07:56:14.378Z,99626.94
2022-12-31T07:58:41.012Z,99621.94
2022-12-31T08:01:16.327Z,99617.97
2022-12-31T08:03:45.854Z,99630.81
2022-12-31T08:06:31.572Z,99627.22
2022-12-31T08:09:18.368Z,99621.88
2022-12-31T08:11:44.941Z,99634.91
2022-12-31T08:14:13.234Z,99652.03
2022-12-31T08:16:40.068Z,99668.50
2022-12-31T08:19:07.085Z,99670.47
2022-12-31T08:21:48.820Z,99657.81
2022-12-31T08:24:40.242Z,99678.06
2022-12-31T08:27:21.026Z,99683.16
2022-12-31T08:30:09.517Z,99669.81
2022-12-31T08:32:48.314Z,99681.09
2022-12-31T08:35:18.779Z,99683.16
2022-12-31T08:37:51.474Z,99686.66
2022-12-31T08:40:18.092Z,99688.66
2022-12-31T08:42:56.811Z,99691.84
2022-12-31T08:45:28.645Z,99689.78
2022-12-31T08:48:00.263Z,99678.63
2022-12-31T08:50:27.716Z,99686.75
2022-12-31T08:52:54.490Z,99698.47
2022-12-31T08:55:21.949Z,99697.41
2022-12-31T08:58:06.734Z,99701.50
2022-12-31T09:00:34.058Z,99713.81
2022-12-31T09:03:00.594Z,99711.63
2022-12-31T09:05:53.002Z,99708.88
2022-12-31T09:08:30.466Z,99698.31
2022-12-31T09:11:07.879Z,99710.47
2022-12-31T09:13:49.559Z,99717.06
2022-12-31T09:16:22.810Z,99723.25
2022-12-31T09:18:49.400Z,99728.28
2022-12-31T09:21:16.439Z,99722.09
2022-12-31T09:23:46.103Z,99725.50
2022-12-31T09:26:18.885Z,99720.75
2022-12-31T09:29:04.201Z,99731.38
2022-12-31T09:31:55.330Z,99741.34
2022-12-31T09:34:36.351Z,99738.56
2022-12-31T09:37:06.730Z,99728.56
2022-12-31T09:39:42.885Z,99749.41
2022-12-31T09:42:09.422Z,99752.16
2022-12-31T09:44:39.118Z,99745.91
2022-12-31T09:47:08.564Z,99753.19
2022-12-31T09:50:00.871Z,99754.81
2022-12-31T09:52:45.951Z,99738.28
2022-12-31T09:55:12.530Z,99733.97
2022-12-31T09:57:39.648Z,99737.97
2022-12-31T10:00:13.200Z,99735.88
2022-12-31T10:02:54.699Z,99730.72
2022-12-31T10:05:33.206Z,99726.63
2022-12-31T10:08:18.425Z,99719.78
2022-12-31T10:10:53.701Z,99714.53
2022-12-31T10:13:25.799Z,99718.78
2022-12-31T10:16:10.478Z,99704.59
2022-12-31T10:18:46.303Z,99706.44
2022-12-31T10:21:12.897Z,99704.28
2022-12-31T10:23:39.393Z,99702.72
2022-12-31T10:26:17.447Z,99705.84
2022-12-31T10:29:02.753Z,99703.13
2022-12-31T10:31:49.590Z,99697.66
2022-12-31T10:34:49.598Z,99701.28
2022-12-31T10:37:18.226Z,99694.88
2022-12-31T10:39:51.000Z,99686.59
2022-12-31T10:42:35.856Z,99679.56
2022-12-31T10:45:20.520Z,99688.00
2022-12-31T10:47:53.034Z,99676.28
2022-12-31T10:50:38.102Z,99680.00
2022-12-31T10:53:07.582Z,99680.09
2022-12-31T10:55:52.383Z,99685.41
2022-12-31T10:58:27.382Z,99679.06
2022-12-31T11:01:20.345Z,99673.53
2022-12-31T11:03:56.078Z,99671.84
2022-12-31T11:06:43.495Z,99678.72
2022-12-31T11:09:13.170Z,99672.44
2022-12-31T11:11:53.639Z,99668.78
2022-12-31T11:14:34.974Z,99662.66
2022-12-31T11:17:01.508Z,99656.25
2022-12-31T11:19:53.962Z,99661.53
2022-12-31T11:22:44.188Z,99670.72
2022-12-31T11:25:31.268Z,99665.56
2022-12-31T11:28:11.938Z,99660.53
2022-12-31T11:30:56.000Z,99667.41
2022-12-31T11:33:52.172Z,99671.78
2022-12-31T11:36:33.120Z,99669.47
2022-12-31T11:39:24.628Z,99661.13
2022-12-31T11:42:03.112Z,99663.06
2022-12-31T11:44:40.472Z,99660.69
2022-12-31T11:47:25.900Z,99680.03
2022-12-31T11:49:55.349Z,99668.06
2022-12-31T11:52:24.827Z,99655.13
2022-12-31T11:55:00.553Z,99672.19
2022-12-31T11:57:29.888Z,99677.06
2022-12-31T11:59:57.779Z,99681.19
2022-12-31T12:02:26.826Z,99685.81
2022-12-31T12:04:55.204Z,99678.41
2022-12-31T12:07:22.014Z,99682.75
2022-12-31T12:09:49.121Z,99688.06
2022-12-31T12:12:16.487Z,99683.84
2022-12-31T12:14:44.307Z,99694.16
2022-12-31T12:17:15.381Z,99697.06
2022-12-31T12:19:46.486Z,99713.06
2022-12-31T12:22:14.756Z,99719.97
2022-12-31T12:24:51.708Z,99734.66
2022-12-31T12:27:20.521Z,99752.38
2022-12-31T12:29:54.935Z,99769.22
2022-12-31T12:32:24.932Z,99766.09
2022-12-31T12:34:52.144Z,99770.44
2022-12-31T12:37:24.507Z,99754.53
2022-12-31T12:40:02.193Z,99753.06
2022-12-31T12:42:29.920Z,99738.97
2022-12-31T12:45:08.182Z,99752.22
2022-12-31T12:47:42.547Z,99750.88
2022-12-31T12:50:20.982Z,99744.81
2022-12-31T12:53:03.725Z,99752.16
2022-12-31T12:55:41.353Z,99749.75
2022-12-31T12:58:29.652Z,99740.28
2022-12-31T13:01:03.108Z,99745.97
2022-12-31T13:04:07.396Z,99733.72
2022-12-31T13:06:47.326Z,99738.81
2022-12-31T13:09:32.730Z,99744.38
2022-12-31T13:12:07.311Z,99756.03
2022-12-31T13:14:49.954Z,99748.03
2022-12-31T13:17:39.759Z,99739.78
2022-12-31T13:20:06.665Z,99747.78
2022-12-31T13:22:56.730Z,99753.13
2022-12-31T13:25:32.360Z,99759.66
2022-12-31T13:28:02.686Z,99757.19
2022-12-31T13:30:40.336Z,99757.47
2022-12-31T13:33:16.227Z,99753.22
2022-12-31T13:35:43.743Z,99762.81
2022-12-31T13:38:21.734Z,99762.53
2022-12-31T13:40:51.996Z,99758.13
2022-12-31T13:43:24.628Z,99774.66
2022-12-31T13:45:58.259Z,99768.34
2022-12-31T13:48:32.754Z,99764.03
2022-12-31T13:51:08.000Z,99764.47
2022-12-31T13:53:45.063Z,99779.81
2022-12-31T13:56:14.938Z,99788.41
2022-12-31T13:58:50.542Z,99791.44
2022-12-31T14:01:33.681Z,99792.41
2022-12-31T14:04:16.701Z,99800.44
2022-12-31T14:06:43.280Z,99803.38
2022-12-31T14:09:14.721Z,99809.69
2022-12-31T14:12:00.473Z,99817.19
2022-12-31T14:14:42.365Z,99814.31
2022-12-31T14:17:19.661Z,99798.69
2022-12-31T14:19:55.091Z,99805.06
2022-12-31T14:22:24.730Z,99787.47
2022-12-31T14:24:54.381Z,99801.41
2022-12-31T14:27:27.105Z,99813.28
2022-12-31T14:29:56.449Z,99803.09
2022-12-31T14:32:28.825Z,99804.19
2022-12-31T14:35:13.987Z,99808.19
2022-12-31T14:38:00.819Z,99804.56
2022-12-31T14:40:48.959Z,99811.97
2022-12-31T14:43:21.688Z,99804.19
2022-12-31T14:45:48.321Z,99800.38
2022-12-31T14:48:21.832Z,99788.47
2022-12-31T14:50:51.671Z,99789.28
2022-12-31T14:53:22.564Z,99781.69
2022-12-31T14:56:08.243Z,99776.34
2022-12-31T14:58:38.891Z,99775.19
2022-12-31T15:01:22.186Z,99783.13
2022-12-31T15:03:50.569Z,99777.75
2022-12-31T15:06:23.299Z,99787.69
2022-12-31T15:09:08.779Z,99792.91
2022-12-31T15:11:58.819Z,99803.84
2022-12-31T15:14:37.845Z,99809.16
2022-12-31T15:17:07.491Z,99805.06
2022-12-31T15:19:52.633Z,99800.91
2022-12-31T15:22:31.686Z,99811.81
2022-12-31T15:25:01.317Z,99804.06
2022-12-31T15:27:35.967Z,99809.16
2022-12-31T15:30:03.245Z,99828.75
2022-12-31T15:32:40.233Z,99827.84
2022-12-31T15:35:22.308Z,99829.94
2022-12-31T15:38:12.155Z,99824.22
2022-12-31T15:40:47.986Z,99818.19
2022-12-31T15:43:16.936Z,99821.56
2022-12-31T15:45:43.837Z,99821.06
2022-12-31T15:48:15.501Z,99825.19
2022-12-31T15:50:43.332Z,99839.63
2022-12-31T15:53:20.821Z,99840.50
2022-12-31T15:55:52.973Z,99831.75
2022-12-31T15:58:22.490Z,99839.75
2022-12-31T16:01:03.774Z,99841.09
2022-12-31T16:03:31.729Z,99841.09
2022-12-31T16:06:02.733Z,99852.63
2022-12-31T16:08:31.620Z,99858.66
2022-12-31T16:10:58.876Z,99860.38
2022-12-31T16:13:29.554Z,99859.66
2022-12-31T16:16:06.489Z,99858.69
2022-12-31T16:18:40.036Z,99866.16
2022-12-31T16:21:22.441Z,99854.53
2022-12-31T16:23:56.834Z,99862.34
2022-12-31T16:26:25.354Z,99865.00
2022-12-31T16:28:52.002Z,99860.00
2022-12-31T16:31:19.875Z,99859.88
2022-12-31T16:33:46.778Z,99855.16
2022-12-31T16:36:19.766Z,99851.63
2022-12-31T16:38:46.376Z,99847.53
2022-12-31T16:41:20.363Z,99853.97
2022-12-31T16:43:51.539Z,99862.56
2022-12-31T16:46:18.132Z,99867.69
2022-12-31T16:48:49.928Z,99862.94
2022-12-31T16:51:18.811Z,99861.34
2022-12-31T16:53:47.162Z,99872.41
2022-12-31T16:56:19.841Z,99862.56
2022-12-31T16:58:46.491Z,99872.03
2022-12-31T17:01:23.313Z,99878.56
2022-12-31T17:03:52.551Z,99862.81
2022-12-31T17:06:20.111Z,99871.06
2022-12-31T17:09:02.442Z,99861.13
2022-12-31T17:11:34.043Z,99870.28
2022-12-31T17:14:06.890Z,99874.22
2022-12-31T17:16:38.448Z,99882.91
2022-12-31T17:19:05.026Z,99895.03
2022-12-31T17:21:34.602Z,99894.28
2022-12-31T17:24:03.243Z,99891.63
2022-12-31T17:26:32.439Z,99889.66
2022-12-31T17:28:59.964Z,99886.19
2022-12-31T17:31:29.345Z,99897.22
2022-12-31T17:34:06.747Z,99894.56
2022-12-31T17:36:33.402Z,99899.66
2022-12-31T17:39:19.375Z,99902.97
2022-12-31T17:41:46.995Z,99902.25
2022-12-31T17:44:26.057Z,99895.84
2022-12-31T17:46:52.997Z,99887.59
2022-12-31T17:49:27.226Z,99898.81
2022-12-31T17:51:53.935Z,99900.19
2022-12-31T17:54:20.457Z,99899.97
2022-12-31T17:56:54.645Z,99899.44
2022-12-31T17:59:22.643Z,99892.78
2022-12-31T18:01:49.623Z,99878.38
2022-12-31T18:04:17.031Z,99876.47
2022-12-31T18:06:46.282Z,99889.75
2022-12-31T18:09:12.906Z,99886.75
2022-12-31T18:11:40.165Z,99893.25
2022-12-31T18:14:07.321Z,99893.91
2022-12-31T18:16:34.360Z,99901.88
2022-12-31T18:19:01.262Z,99909.38
2022-12-31T18:21:34.693Z,99922.66
2022-12-31T18:26:28.863Z,99916.00
2022-12-31T18:28:56.826Z,99907.84
2022-12-31T18:31:27.819Z,99892.69
2022-12-31T18:33:55.365Z,99892.13
2022-12-31T18:36:22.562Z,99891.44
2022-12-31T18:38:49.395Z,99882.88
2022-12-31T18:41:15.887Z,99882.94
2022-12-31T18:43:42.478Z,99878.06
2022-12-31T18:46:13.675Z,99878.06
2022-12-31T18:48:43.712Z,99875.91
2022-12-31T18:51:12.944Z,99873.97
2022-12-31T18:53:39.505Z,99873.00
2022-12-31T18:56:06.295Z,99884.94
2022-12-31T18:58:32.900Z,99868.56
2022-12-31T19:00:59.493Z,99885.66
2022-12-31T19:03:28.291Z,99867.19
2022-12-31T19:05:58.049Z,99868.75
2022-12-31T19:08:24.622Z,99872.81
2022-12-31T19:10:52.281Z,99879.66
2022-12-31T19:13:20.143Z,99875.97
2022-12-31T19:15:51.179Z,99872.50
2022-12-31T19:18:20.689Z,99871.50
2022-12-31T19:20:47.744Z,99874.72
2022-12-31T19:23:18.331Z,99877.06
2022-12-31T19:25:45.873Z,99871.72
2022-12-31T19:28:17.472Z,99868.75
2022-12-31T19:30:44.710Z,99876.13
2022-12-31T19:33:11.725Z,99871.16
2022-12-31T19:35:38.716Z,99864.88
2022-12-31T19:38:06.229Z,99863.91
2022-12-31T19:40:32.838Z,99864.22
2022-12-31T19:42:59.416Z,99864.69
2022-12-31T19:45:27.380Z,99862.00
2022-12-31T19:47:54.626Z,99862.72
2022-12-31T19:50:22.373Z,99845.91
2022-12-31T19:52:50.090Z,99861.06
2022-12-31T19:55:19.379Z,99864.00
2022-12-31T19:57:48.970Z,99878.41
2022-12-31T20:00:16.897Z,99871.72
2022-12-31T20:02:44.598Z,99878.69
2022-12-31T20:05:12.225Z,99892.59
2022-12-31T20:07:38.776Z,99883.38
2022-12-31T20:10:08.464Z,99896.88
2022-12-31T20:12:40.589Z,99882.59
2022-12-31T20:15:10.796Z,99883.63
2022-12-31T20:17:37.337Z,99886.38
2022-12-31T20:20:05.037Z,99898.03
2022-12-31T20:22:31.561Z,99898.22
2022-12-31T20:24:58.323Z,99907.50
2022-12-31T20:27:24.867Z,99901.66
2022-12-31T20:29:54.005Z,99901.88
2022-12-31T20:32:20.537Z,99888.16
2022-12-31T20:34:47.099Z,99892.31
2022-12-31T20:37:13.663Z,99889.28
2022-12-31T20:39:40.233Z,99872.22
2022-12-31T20:42:06.982Z,99879.41
2022-12-31T20:44:33.843Z,99898.22
2022-12-31T20:47:00.352Z,99902.97
2022-12-31T20:49:44.861Z,99899.72
2022-12-31T20:52:13.497Z,99901.38
2022-12-31T20:54:40.093Z,99889.28
2022-12-31T20:57:06.856Z,99889.03
2022-12-31T20:59:35.722Z,99893.41
2022-12-31T21:04:49.082Z,99912.28
2022-12-31T21:07:18.868Z,99907.22
2022-12-31T21:09:45.426Z,99908.44
2022-12-31T21:12:30.869Z,99904.13
2022-12-31T21:14:57.840Z,99921.84
2022-12-31T21:17:25.295Z,99927.69
2022-12-31T21:19:55.111Z,99927.53
2022-12-31T21:22:23.053Z,99933.00
2022-12-31T21:24:49.597Z,99944.13
2022-12-31T21:27:16.257Z,99950.47
2022-12-31T21:30:16.321Z,99950.28
2022-12-31T21:32:29.468Z,99949.75
2022-12-31T21:35:39.513Z,99951.22
2022-12-31T21:37:58.953Z,99958.63
2022-12-31T21:40:28.493Z,99954.94
2022-12-31T21:42:55.284Z,99965.63
2022-12-31T21:45:24.743Z,99963.38
2022-12-31T21:48:10.739Z,99954.97
2022-12-31T21:50:37.390Z,99956.91
2022-12-31T21:53:04.274Z,99958.47
2022-12-31T21:55:49.690Z,99956.84
2022-12-31T21:58:27.737Z,99963.00
2022-12-31T22:01:14.628Z,99954.78
2022-12-31T22:03:41.647Z,99970.31
2022-12-31T22:06:16.339Z,99968.81
2022-12-31T22:08:46.274Z,99966.91
2022-12-31T22:11:13.498Z,99975.22
2022-12-31T22:13:40.267Z,99984.78
2022-12-31T22:16:07.297Z,99977.13
2022-12-31T22:18:35.752Z,99983.53
2022-12-31T22:21:02.431Z,99975.56
2022-12-31T22:23:31.701Z,99989.72
2022-12-31T22:25:58.280Z,99995.03
2022-12-31T22:28:38.257Z,99988.63
2022-12-31T22:31:06.358Z,100005.03
2022-12-31T22:33:32.963Z,99982.44
2022-12-31T22:36:04.413Z,99982.66
2022-12-31T22:38:31.327Z,99994.78
2022-12-31T22:41:01.773Z,99994.72
2022-12-31T22:43:30.454Z,99991.19
2022-12-31T22:45:56.971Z,100001.19
2022-12-31T22:48:23.606Z,100000.34
2022-12-31T22:50:57.106Z,100001.81
2022-12-31T22:53:23.837Z,100003.03
2022-12-31T22:55:52.986Z,100009.84
2022-12-31T22:58:19.852Z,100016.78
2022-12-31T23:00:46.983Z,100008.25
2022-12-31T23:03:13.928Z,100020.84
2022-12-31T23:05:40.779Z,100023.69
2022-12-31T23:08:18.672Z,100028.91
2022-12-31T23:11:10.403Z,100029.44
2022-12-31T23:13:57.287Z,100034.25
2022-12-31T23:16:43.674Z,100025.72
2022-12-31T23:19:28.871Z,100030.84
2022-12-31T23:22:14.173Z,100040.84
2022-12-31T23:24:41.045Z,100041.28
2022-12-31T23:27:07.651Z,100038.63
2022-12-31T23:29:34.248Z,100038.53
2022-12-31T23:32:00.798Z,100032.34
2022-12-31T23:34:27.401Z,100035.72
2022-12-31T23:36:54.057Z,100035.41
2022-12-31T23:39:20.768Z,100040.00
2022-12-31T23:41:47.304Z,100031.25
2022-12-31T23:44:13.910Z,100031.50
2022-12-31T23:46:40.568Z,100035.09
2022-12-31T23:49:07.155Z,100031.56
2022-12-31T23:51:33.682Z,100039.47
2022-12-31T23:54:00.899Z,100050.25
2022-12-31T23:56:27.549Z,100043.91
2022-12-31T23:58:55.578Z,100058.50
